createdAt,value
2019-04-23T00:02:21.494Z,8.80
2019-04-23T00:05:48.168Z,8.80
2019-04-23T00:09:27.670Z,8.70
2019-04-23T00:12:44.042Z,8.70
2019-04-23T00:19:32.938Z,8.60
2019-04-23T00:29:56.100Z,8.50
2019-04-23T00:33:21.745Z,8.50
2019-04-23T00:40:05.708Z,8.50
2019-04-23T00:43:48.617Z,8.50
2019-04-23T00:46:55.913Z,8.40
2019-04-23T00:50:32.559Z,8.30
2019-04-23T00:53:48.088Z,8.40
2019-04-23T00:57:23.169Z,8.30
2019-04-23T01:00:46.053Z,8.30
2019-04-23T01:04:10.305Z,8.30
2019-04-23T01:07:34.892Z,8.30
2019-04-23T01:11:08.242Z,8.10
2019-04-23T01:14:32.474Z,8.10
2019-04-23T01:21:13.730Z,8.10
2019-04-23T01:24:40.806Z,8.10
2019-04-23T01:28:40.008Z,8.00
2019-04-23T01:31:57.415Z,8.00
2019-04-23T01:35:21.145Z,8.00
2019-04-23T01:38:56.018Z,8.00
2019-04-23T01:42:26.662Z,7.90
2019-04-23T01:45:30.758Z,7.90
2019-04-23T01:49:10.629Z,7.90
2019-04-23T01:56:02.552Z,7.80
2019-04-23T01:59:38.606Z,7.80
2019-04-23T02:02:49.827Z,7.80
2019-04-23T02:06:16.583Z,7.60
2019-04-23T02:09:42.297Z,7.70
2019-04-23T02:13:10.918Z,7.60
2019-04-23T02:16:34.041Z,7.50
2019-04-23T02:20:01.663Z,7.40
2019-04-23T02:23:28.043Z,7.50
2019-04-23T02:27:07.356Z,7.40
2019-04-23T02:30:40.603Z,7.40
2019-04-23T02:34:00.514Z,7.40
2019-04-23T02:37:16.010Z,7.30
2019-04-23T02:40:59.747Z,7.30
2019-04-23T02:47:32.628Z,7.20
2019-04-23T02:50:57.428Z,7.30
2019-04-23T02:54:44.614Z,7.30
2019-04-23T03:01:27.991Z,7.30
2019-04-23T03:04:43.346Z,7.10
2019-04-23T03:07:59.974Z,7.20
2019-04-23T03:11:32.592Z,7.20
2019-04-23T03:14:59.265Z,7.20
2019-04-23T03:18:39.628Z,7.20
2019-04-23T03:28:56.884Z,7.20
2019-04-23T03:38:55.544Z,7.20
2019-04-23T03:42:47.623Z,7.20
2019-04-23T03:49:21.339Z,7.10
2019-04-23T03:52:46.524Z,7.00
2019-04-23T04:09:51.717Z,7.20
2019-04-23T04:23:43.089Z,7.30
2019-04-23T04:27:05.687Z,7.30
2019-04-23T04:37:48.534Z,7.40
2019-04-23T04:40:55.256Z,7.50
2019-04-23T04:51:18.863Z,7.70
2019-04-23T04:54:22.005Z,7.70
2019-04-23T04:57:58.655Z,7.60
2019-04-23T05:01:25.376Z,7.60
2019-04-23T05:11:45.386Z,7.80
2019-04-23T05:18:38.138Z,8.10
2019-04-23T05:22:06.624Z,8.30
2019-04-23T05:25:25.441Z,8.40
2019-04-23T05:29:03.806Z,8.50
2019-04-23T05:32:12.071Z,8.40
2019-04-23T05:39:15.813Z,8.50
2019-04-23T05:42:32.037Z,8.80
2019-04-23T05:45:59.664Z,9.00
2019-04-23T05:49:26.176Z,8.90
2019-04-23T05:52:54.420Z,8.80
2019-04-23T05:56:15.241Z,8.80
2019-04-23T05:59:34.234Z,8.70
2019-04-23T06:03:14.710Z,8.80
2019-04-23T06:09:59.293Z,9.10
2019-04-23T06:13:26.963Z,11.20
2019-04-23T06:20:15.118Z,10.80
2019-04-23T06:23:46.456Z,10.10
2019-04-23T06:27:06.685Z,9.40
2019-04-23T06:30:43.662Z,9.30
2019-04-23T06:34:10.830Z,9.30
2019-04-23T06:37:36.192Z,9.40
2019-04-23T06:40:48.803Z,9.50
2019-04-23T06:44:24.055Z,10.00
2019-04-23T06:47:56.460Z,10.20
2019-04-23T06:51:22.053Z,10.10
2019-04-23T06:58:12.313Z,10.60
2019-04-23T07:01:36.310Z,10.50
2019-04-23T07:08:32.521Z,10.30
2019-04-23T07:11:44.766Z,10.30
2019-04-23T07:15:30.876Z,10.40
2019-04-23T07:18:36.138Z,11.10
2019-04-23T07:25:48.538Z,15.90
2019-04-23T07:29:05.056Z,16.10
2019-04-23T07:32:15.420Z,13.30
2019-04-23T07:35:57.767Z,11.70
2019-04-23T07:42:42.073Z,10.60
2019-04-23T07:46:38.307Z,10.60
2019-04-23T07:50:00.999Z,10.90
2019-04-23T07:53:19.215Z,11.50
2019-04-23T07:56:42.217Z,13.10
2019-04-23T08:00:09.287Z,16.40
2019-04-23T08:03:41.451Z,14.60
2019-04-23T08:07:00.457Z,13.00
2019-04-23T08:10:28.035Z,12.30
2019-04-23T08:13:59.082Z,12.20
2019-04-23T08:17:16.144Z,12.20
2019-04-23T08:20:57.212Z,12.40
2019-04-23T08:24:10.662Z,12.50
2019-04-23T08:27:42.044Z,12.40
2019-04-23T08:31:08.313Z,12.50
2019-04-23T08:38:11.993Z,13.20
2019-04-23T08:45:06.969Z,13.60
2019-04-23T08:48:34.502Z,13.40
2019-04-23T08:51:51.659Z,15.40
2019-04-23T08:55:11.404Z,15.30
2019-04-23T08:58:49.328Z,14.20
2019-04-23T09:05:44.785Z,14.60
2019-04-23T09:08:49.636Z,13.40
2019-04-23T09:12:31.613Z,13.10
2019-04-23T09:19:16.100Z,12.70
2019-04-23T09:25:58.794Z,12.50
2019-04-23T09:29:40.743Z,12.50
2019-04-23T09:33:03.505Z,12.60
2019-04-23T09:36:34.633Z,12.60
2019-04-23T09:39:58.900Z,12.80
2019-04-23T09:43:22.719Z,12.90
2019-04-23T09:47:00.430Z,12.90
2019-04-23T09:50:20.455Z,12.90
2019-04-23T09:54:04.410Z,13.20
2019-04-23T09:57:14.031Z,13.50
2019-04-23T10:00:40.742Z,15.40
2019-04-23T10:03:53.394Z,15.60
2019-04-23T10:07:21.139Z,15.80
2019-04-23T10:10:32.474Z,17.70
2019-04-23T10:13:58.568Z,16.90
2019-04-23T10:17:24.329Z,19.00
2019-04-23T10:20:49.005Z,18.70
2019-04-23T10:24:14.937Z,19.00
2019-04-23T10:27:41.342Z,17.70
2019-04-23T10:31:07.133Z,18.60
2019-04-23T10:34:43.017Z,17.80
2019-04-23T10:38:04.180Z,15.50
2019-04-23T10:41:25.727Z,14.90
2019-04-23T10:45:10.953Z,15.60
2019-04-23T10:49:00.753Z,14.90
2019-04-23T10:59:37.252Z,18.10
2019-04-23T11:03:01.516Z,18.60
2019-04-23T11:09:56.970Z,19.00
2019-04-23T11:13:25.585Z,20.20
2019-04-23T11:16:59.772Z,17.40
2019-04-23T11:23:44.562Z,16.10
2019-04-23T11:27:07.542Z,16.20
2019-04-23T11:30:31.986Z,16.80
2019-04-23T11:37:35.604Z,17.00
2019-04-23T11:40:37.144Z,18.10
2019-04-23T11:44:18.903Z,18.20
2019-04-23T11:54:32.250Z,19.70
2019-04-23T11:58:08.697Z,19.90
2019-04-23T12:08:28.239Z,18.10
2019-04-23T12:11:52.847Z,16.90
2019-04-23T12:28:57.731Z,19.40
2019-04-23T12:35:51.919Z,19.00
2019-04-23T12:39:18.796Z,17.90
2019-04-23T12:42:54.018Z,17.30
2019-04-23T12:46:03.262Z,17.20
2019-04-23T12:49:52.826Z,16.90
2019-04-23T12:53:21.876Z,16.80
2019-04-23T12:56:48.829Z,17.60
2019-04-23T12:59:50.370Z,17.80
2019-04-23T13:06:45.337Z,17.90
2019-04-23T13:10:09.946Z,17.60
2019-04-23T13:13:37.494Z,17.90
2019-04-23T13:20:27.322Z,18.30
2019-04-23T13:23:45.959Z,18.20
2019-04-23T13:27:30.113Z,18.30
2019-04-23T13:34:23.123Z,18.20
2019-04-23T13:37:57.330Z,17.90
2019-04-23T13:41:19.163Z,17.50
2019-04-23T13:44:42.686Z,17.40
2019-04-23T13:51:34.206Z,17.80
2019-04-23T13:55:04.580Z,17.70
2019-04-23T13:58:41.754Z,17.50
2019-04-23T14:01:40.073Z,17.50
2019-04-23T14:05:13.063Z,17.40
2019-04-23T14:08:47.478Z,17.30
2019-04-23T14:12:08.497Z,17.20
2019-04-23T14:15:41.353Z,17.20
2019-04-23T14:22:52.639Z,17.30
2019-04-23T14:29:22.441Z,17.50
2019-04-23T14:32:46.933Z,17.40
2019-04-23T14:36:10.860Z,17.40
2019-04-23T14:39:43.697Z,17.40
2019-04-23T14:50:30.818Z,17.70
2019-04-23T14:53:24.617Z,17.50
2019-04-23T14:56:51.536Z,17.40
2019-04-23T15:00:18.660Z,17.20
2019-04-23T15:03:46.621Z,17.20
2019-04-23T15:10:40.920Z,17.40
2019-04-23T15:17:27.080Z,17.20
2019-04-23T15:21:08.655Z,17.20
2019-04-23T15:24:23.208Z,17.20
2019-04-23T15:34:31.213Z,17.40
2019-04-23T15:38:18.840Z,17.60
2019-04-23T15:41:32.055Z,17.60
2019-04-23T15:44:55.783Z,17.50
2019-04-23T15:48:17.625Z,17.30
2019-04-23T15:55:05.813Z,17.20
2019-04-23T15:58:57.934Z,17.10
2019-04-23T16:01:43.838Z,17.00
2019-04-23T16:05:10.067Z,16.90
2019-04-23T16:12:27.776Z,16.80
2019-04-23T16:15:58.002Z,16.80
2019-04-23T16:19:54.136Z,16.80
2019-04-23T16:22:52.832Z,16.70
2019-04-23T16:26:29.830Z,16.70
2019-04-23T16:30:06.276Z,16.80
2019-04-23T16:33:11.089Z,16.80
2019-04-23T16:40:27.926Z,16.80
2019-04-23T16:43:35.401Z,16.70
2019-04-23T16:47:04.648Z,16.70
2019-04-23T16:50:31.105Z,16.70
2019-04-23T16:53:54.188Z,16.70
2019-04-23T17:04:19.605Z,16.50
2019-04-23T17:07:36.810Z,16.40
2019-04-23T17:11:13.024Z,16.30
2019-04-23T17:14:23.423Z,16.30
2019-04-23T17:17:56.121Z,16.20
2019-04-23T17:21:18.149Z,16.00
2019-04-23T17:24:51.741Z,15.90
2019-04-23T17:28:17.946Z,15.80
2019-04-23T17:35:09.565Z,15.60
2019-04-23T17:38:45.577Z,15.50
2019-04-23T17:42:14.011Z,15.50
2019-04-23T17:45:32.498Z,15.40
2019-04-23T17:48:55.190Z,15.40
2019-04-23T17:55:57.215Z,15.30
2019-04-23T17:59:23.260Z,15.20
2019-04-23T18:02:55.441Z,15.10
2019-04-23T18:09:27.564Z,15.00
2019-04-23T18:16:27.649Z,15.00
2019-04-23T18:19:53.188Z,15.00
2019-04-23T18:23:09.707Z,14.90
2019-04-23T18:34:05.391Z,15.00
2019-04-23T18:37:16.944Z,14.90
2019-04-23T18:40:55.206Z,14.90
2019-04-23T18:44:05.820Z,14.90
2019-04-23T18:47:32.341Z,14.90
2019-04-23T18:51:05.100Z,14.80
2019-04-23T18:54:24.314Z,14.70
2019-04-23T18:57:45.802Z,14.70
2019-04-23T19:01:11.291Z,14.70
2019-04-23T19:08:32.163Z,14.70
2019-04-23T19:12:05.129Z,14.50
2019-04-23T19:15:30.109Z,14.50
2019-04-23T19:18:54.606Z,14.40
2019-04-23T19:22:20.737Z,14.30
2019-04-23T19:25:42.124Z,14.30
2019-04-23T19:32:39.002Z,14.10
2019-04-23T19:39:24.602Z,14.00
2019-04-23T19:42:50.262Z,13.90
2019-04-23T19:46:48.934Z,13.70
2019-04-23T19:49:45.341Z,13.80
2019-04-23T19:56:39.291Z,13.60
2019-04-23T20:07:06.105Z,13.40
2019-04-23T20:10:03.982Z,13.40
2019-04-23T20:13:50.866Z,13.40
2019-04-23T20:17:23.376Z,13.30
2019-04-23T20:20:33.550Z,13.20
2019-04-23T20:24:21.398Z,13.20
2019-04-23T20:31:20.792Z,13.00
2019-04-23T20:38:22.167Z,12.90
2019-04-23T20:41:28.413Z,12.80
2019-04-23T20:44:53.540Z,12.80
2019-04-23T20:48:20.389Z,12.70
2019-04-23T20:51:41.332Z,12.70
2019-04-23T20:58:47.661Z,12.60
2019-04-23T21:02:05.693Z,12.40
2019-04-23T21:12:22.902Z,12.40
2019-04-23T21:19:07.772Z,12.30
2019-04-23T21:22:41.599Z,12.20
2019-04-23T21:25:54.086Z,12.10
2019-04-23T21:29:26.281Z,12.10
2019-04-23T21:33:15.764Z,12.10
2019-04-23T21:36:25.217Z,12.20
2019-04-23T21:40:19.645Z,12.20
2019-04-23T21:43:31.978Z,12.00
2019-04-23T21:46:51.091Z,12.00
2019-04-23T21:50:19.183Z,12.10
2019-04-23T21:53:42.187Z,12.10
2019-04-23T21:57:00.586Z,12.10
2019-04-23T22:00:39.176Z,12.10
2019-04-23T22:04:11.620Z,12.20
2019-04-23T22:07:30.734Z,12.20
2019-04-23T22:11:00.622Z,12.10
2019-04-23T22:17:37.588Z,12.10
2019-04-23T22:21:14.428Z,12.00
2019-04-23T22:24:25.544Z,12.00
2019-04-23T22:31:29.549Z,11.80
2019-04-23T22:34:55.913Z,11.70
2019-04-23T22:38:22.701Z,11.70
2019-04-23T22:41:59.461Z,11.70
2019-04-23T22:45:26.837Z,11.60
2019-04-23T22:48:34.988Z,11.60
2019-04-23T22:52:04.078Z,11.60
2019-04-23T22:55:27.609Z,11.50
2019-04-23T22:59:03.447Z,11.40
2019-04-23T23:02:40.762Z,11.50
2019-04-23T23:09:26.290Z,11.40
2019-04-23T23:13:01.977Z,11.40
2019-04-23T23:23:13.117Z,11.40
2019-04-23T23:26:33.786Z,11.40
2019-04-23T23:30:05.149Z,11.40
2019-04-23T23:33:24.073Z,11.30
2019-04-23T23:36:54.787Z,11.20
2019-04-23T23:43:44.464Z,11.10
2019-04-23T23:47:13.152Z,11.10
2019-04-23T23:50:35.127Z,11.00
2019-04-23T23:54:03.886Z,10.90
